createdAt,value
2016-11-20T00:00:11.883Z,58.80
2016-11-20T00:01:12.235Z,58.80
2016-11-20T00:02:12.844Z,58.80
2016-11-20T00:03:12.315Z,58.70
2016-11-20T00:04:12.237Z,58.70
2016-11-20T00:05:12.265Z,58.70
2016-11-20T00:06:12.615Z,58.70
2016-11-20T00:07:12.136Z,58.70
2016-11-20T00:08:12.132Z,58.80
2016-11-20T00:09:12.677Z,58.80
2016-11-20T00:10:11.599Z,58.70
2016-11-20T00:11:12.150Z,58.70
2016-11-20T00:12:13.715Z,58.80
2016-11-20T00:13:10.481Z,is
2016-11-20T00:14:12.631Z,58.80
2016-11-20T00:15:11.836Z,58.70
2016-11-20T00:16:10.556Z,is
2016-11-20T00:17:14.507Z,58.80
2016-11-20T00:18:12.098Z,58.70
2016-11-20T00:19:12.255Z,58.60
2016-11-20T00:20:12.934Z,58.80
2016-11-20T00:21:12.286Z,58.70
2016-11-20T00:22:09.406Z,is
2016-11-20T00:23:13.239Z,58.80
2016-11-20T00:24:12.215Z,58.70
2016-11-20T00:25:12.737Z,58.70
2016-11-20T00:26:13.502Z,58.80
2016-11-20T00:27:11.678Z,58.80
2016-11-20T00:28:13.275Z,58.70
2016-11-20T00:29:12.794Z,58.80
2016-11-20T00:30:12.727Z,58.70
2016-11-20T00:31:11.909Z,58.70
2016-11-20T00:32:11.812Z,58.70
2016-11-20T00:33:12.525Z,58.90
2016-11-20T00:34:12.234Z,58.80
2016-11-20T00:35:13.787Z,58.80
2016-11-20T00:36:11.993Z,58.70
2016-11-20T00:37:12.514Z,58.70
2016-11-20T00:38:12.134Z,58.70
2016-11-20T00:39:12.540Z,58.70
2016-11-20T00:40:12.462Z,58.80
2016-11-20T00:41:12.038Z,58.70
2016-11-20T00:42:10.693Z,is
2016-11-20T00:43:11.933Z,58.70
2016-11-20T00:44:11.854Z,58.70
2016-11-20T00:45:11.907Z,58.70
2016-11-20T00:46:12.823Z,58.70
2016-11-20T00:47:12.546Z,58.80
2016-11-20T00:48:12.199Z,58.70
2016-11-20T00:49:12.860Z,58.80
2016-11-20T00:50:12.383Z,58.70
2016-11-20T00:51:11.414Z,58.80
2016-11-20T00:52:11.485Z,58.70
2016-11-20T00:53:12.095Z,59.00
2016-11-20T00:54:12.624Z,59.00
2016-11-20T00:55:12.231Z,58.80
2016-11-20T00:56:12.301Z,58.70
2016-11-20T00:57:11.151Z,is
2016-11-20T00:58:11.387Z,58.70
2016-11-20T00:59:12.413Z,58.80
2016-11-20T01:00:12.402Z,58.80
2016-11-20T01:01:14.182Z,58.90
2016-11-20T01:02:13.440Z,58.70
2016-11-20T01:03:11.365Z,58.70
2016-11-20T01:04:14.940Z,58.70
2016-11-20T01:05:13.185Z,58.80
2016-11-20T01:06:12.134Z,58.80
2016-11-20T01:07:13.771Z,58.80
2016-11-20T01:08:13.808Z,58.80
2016-11-20T01:09:13.646Z,58.90
2016-11-20T01:10:12.124Z,58.80
2016-11-20T01:11:12.164Z,58.80
2016-11-20T01:12:14.519Z,58.90
2016-11-20T01:13:13.492Z,58.70
2016-11-20T01:14:13.290Z,58.70
2016-11-20T01:15:12.805Z,58.80
2016-11-20T01:16:17.379Z,58.80
2016-11-20T01:17:14.286Z,58.80
2016-11-20T01:18:13.994Z,58.70
2016-11-20T01:19:14.720Z,58.80
2016-11-20T01:20:11.787Z,58.90
2016-11-20T01:21:13.348Z,59.20
2016-11-20T01:22:14.310Z,59.20
2016-11-20T01:23:14.127Z,59.10
2016-11-20T01:24:13.209Z,59.00
2016-11-20T01:25:14.609Z,58.70
2016-11-20T01:26:12.043Z,59.00
2016-11-20T01:27:12.065Z,59.00
2016-11-20T01:28:13.509Z,59.10
2016-11-20T01:29:12.081Z,59.00
2016-11-20T01:30:12.664Z,59.00
2016-11-20T01:31:18.846Z,59.10
2016-11-20T01:32:12.471Z,58.90
2016-11-20T01:33:12.643Z,59.10
2016-11-20T01:34:12.953Z,59.00
2016-11-20T01:35:12.865Z,59.00
2016-11-20T01:36:13.094Z,58.90
2016-11-20T01:37:12.591Z,59.00
2016-11-20T01:38:11.661Z,59.00
2016-11-20T01:39:11.804Z,59.10
2016-11-20T01:40:12.439Z,59.00
2016-11-20T01:41:12.223Z,59.00
2016-11-20T01:42:12.848Z,59.10
2016-11-20T01:43:13.216Z,59.00
2016-11-20T01:44:13.748Z,59.20
2016-11-20T01:45:12.524Z,59.20
2016-11-20T01:46:13.286Z,59.10
2016-11-20T01:47:12.174Z,59.00
2016-11-20T01:48:12.425Z,58.90
2016-11-20T01:49:11.973Z,58.90
2016-11-20T01:50:12.053Z,58.80
2016-11-20T01:51:12.130Z,58.70
2016-11-20T01:52:13.040Z,58.70
2016-11-20T01:53:12.118Z,58.70
2016-11-20T01:54:12.349Z,58.80
2016-11-20T01:55:13.166Z,58.80
2016-11-20T01:56:12.384Z,58.70
2016-11-20T01:57:11.938Z,58.70
2016-11-20T01:58:12.484Z,58.70
2016-11-20T01:59:12.103Z,58.70
2016-11-20T02:00:12.952Z,58.80
2016-11-20T02:01:14.056Z,58.80
2016-11-20T02:02:12.682Z,58.70
2016-11-20T02:03:12.270Z,58.70
2016-11-20T02:04:13.142Z,58.80
2016-11-20T02:05:13.826Z,58.70
2016-11-20T02:06:13.066Z,58.70
2016-11-20T02:07:12.609Z,58.80
2016-11-20T02:08:12.379Z,58.70
2016-11-20T02:09:10.201Z,is
2016-11-20T02:10:12.219Z,58.70
2016-11-20T02:11:12.241Z,58.70
2016-11-20T02:12:13.877Z,58.80
2016-11-20T02:13:13.435Z,58.70
2016-11-20T02:14:10.447Z,is
2016-11-20T02:15:12.163Z,58.70
2016-11-20T02:16:12.552Z,58.70
2016-11-20T02:17:13.380Z,58.80
2016-11-20T02:18:11.868Z,58.70
2016-11-20T02:19:11.842Z,58.80
2016-11-20T02:20:12.282Z,58.70
2016-11-20T02:21:12.315Z,58.80
2016-11-20T02:22:12.970Z,58.70
2016-11-20T02:23:10.449Z,is
2016-11-20T02:24:12.051Z,58.70
2016-11-20T02:25:12.093Z,58.70
2016-11-20T02:26:12.585Z,58.70
2016-11-20T02:27:12.163Z,58.90
2016-11-20T02:28:12.054Z,58.90
2016-11-20T02:29:12.266Z,59.20
2016-11-20T02:30:13.063Z,59.20
2016-11-20T02:31:13.326Z,59.00
2016-11-20T02:32:12.867Z,59.20
2016-11-20T02:33:12.592Z,59.10
2016-11-20T02:34:13.128Z,59.20
2016-11-20T02:35:13.286Z,59.10
2016-11-20T02:36:13.525Z,59.00
2016-11-20T02:37:12.286Z,59.20
2016-11-20T02:38:15.001Z,59.10
2016-11-20T02:39:13.872Z,59.20
2016-11-20T02:40:13.422Z,59.10
2016-11-20T02:41:12.195Z,59.10
2016-11-20T02:42:13.764Z,59.20
2016-11-20T02:43:11.946Z,59.00
2016-11-20T02:44:12.127Z,59.00
2016-11-20T02:45:12.044Z,59.10
2016-11-20T02:46:13.224Z,59.10
2016-11-20T02:47:14.015Z,59.10
2016-11-20T02:48:10.722Z,is
2016-11-20T02:49:12.219Z,59.00
2016-11-20T02:50:12.736Z,59.10
2016-11-20T02:51:11.814Z,59.00
2016-11-20T02:52:11.968Z,59.00
2016-11-20T02:53:12.388Z,58.90
2016-11-20T02:54:10.387Z,is
2016-11-20T02:55:11.683Z,58.90
2016-11-20T02:56:10.457Z,is
2016-11-20T02:57:10.344Z,is
2016-11-20T02:58:11.839Z,59.00
2016-11-20T02:59:12.557Z,59.00
2016-11-20T03:00:12.783Z,58.90
2016-11-20T03:01:12.372Z,58.30
2016-11-20T03:02:12.156Z,58.80
2016-11-20T03:03:14.734Z,58.70
2016-11-20T03:04:12.210Z,58.80
2016-11-20T03:05:12.184Z,58.70
2016-11-20T03:06:12.200Z,58.70
2016-11-20T03:07:13.309Z,58.70
2016-11-20T03:08:12.967Z,58.60
2016-11-20T03:09:10.721Z,is
2016-11-20T03:10:14.597Z,58.70
2016-11-20T03:11:10.604Z,is
2016-11-20T03:12:12.040Z,58.70
2016-11-20T03:13:11.972Z,58.60
2016-11-20T03:14:12.029Z,58.70
2016-11-20T03:15:14.338Z,58.70
2016-11-20T03:16:11.419Z,58.50
2016-11-20T03:17:14.272Z,58.70
2016-11-20T03:18:12.366Z,58.70
2016-11-20T03:19:12.197Z,58.70
2016-11-20T03:20:12.679Z,58.70
2016-11-20T03:21:12.443Z,58.60
2016-11-20T03:22:12.437Z,58.70
2016-11-20T03:23:13.724Z,58.70
2016-11-20T03:24:12.150Z,58.70
2016-11-20T03:25:12.166Z,58.70
2016-11-20T03:26:12.864Z,58.70
2016-11-20T03:27:11.921Z,58.90
2016-11-20T03:28:12.785Z,58.90
2016-11-20T03:29:11.486Z,59.30
2016-11-20T03:30:12.279Z,59.20
2016-11-20T03:31:12.998Z,59.20
2016-11-20T03:32:13.454Z,59.10
2016-11-20T03:33:11.537Z,59.10
2016-11-20T03:34:13.170Z,59.20
2016-11-20T03:35:12.111Z,59.10
2016-11-20T03:36:12.969Z,59.00
2016-11-20T03:37:11.990Z,58.90
2016-11-20T03:38:10.702Z,is
2016-11-20T03:39:13.446Z,59.00
2016-11-20T03:40:11.688Z,58.90
2016-11-20T03:41:11.768Z,58.90
2016-11-20T03:42:12.549Z,59.00
2016-11-20T03:43:12.668Z,59.20
2016-11-20T03:44:12.417Z,59.10
2016-11-20T03:45:09.655Z,is
2016-11-20T03:46:14.063Z,59.00
2016-11-20T03:47:12.206Z,58.90
2016-11-20T03:48:13.079Z,59.10
2016-11-20T03:49:12.732Z,58.90
2016-11-20T03:50:12.333Z,58.90
2016-11-20T03:51:13.157Z,59.50
2016-11-20T03:52:13.203Z,58.80
2016-11-20T03:53:12.800Z,58.80
2016-11-20T03:54:12.403Z,58.90
2016-11-20T03:55:12.317Z,58.90
2016-11-20T03:56:12.586Z,58.70
2016-11-20T03:57:12.397Z,58.70
2016-11-20T03:58:12.971Z,58.60
2016-11-20T03:59:12.991Z,58.70
2016-11-20T04:00:10.758Z,is
2016-11-20T04:01:11.875Z,58.50
2016-11-20T04:02:12.388Z,58.60
2016-11-20T04:03:12.031Z,58.60
2016-11-20T04:04:12.676Z,58.60
2016-11-20T04:05:11.715Z,58.60
2016-11-20T04:06:11.695Z,58.50
2016-11-20T04:07:12.114Z,58.70
2016-11-20T04:08:12.038Z,58.60
2016-11-20T04:09:12.695Z,58.60
2016-11-20T04:10:11.866Z,58.50
2016-11-20T04:11:11.821Z,58.50
2016-11-20T04:12:12.021Z,58.60
2016-11-20T04:13:11.184Z,is
2016-11-20T04:14:11.784Z,58.40
2016-11-20T04:15:12.530Z,58.60
2016-11-20T04:16:12.844Z,58.60
2016-11-20T04:17:11.964Z,58.40
2016-11-20T04:18:14.014Z,58.70
2016-11-20T04:19:13.194Z,58.50
2016-11-20T04:20:12.992Z,58.50
2016-11-20T04:21:12.803Z,58.50
2016-11-20T04:22:11.754Z,58.40
2016-11-20T04:23:12.115Z,58.50
2016-11-20T04:24:13.125Z,58.60
2016-11-20T04:25:12.169Z,58.50
2016-11-20T04:26:12.665Z,58.40
2016-11-20T04:27:12.046Z,58.50
2016-11-20T04:28:12.445Z,58.50
2016-11-20T04:29:11.544Z,58.50
2016-11-20T04:30:20.135Z,58.60
2016-11-20T04:31:12.633Z,58.40
2016-11-20T04:32:11.747Z,58.50
2016-11-20T04:33:10.316Z,is
2016-11-20T04:34:11.704Z,58.50
2016-11-20T04:35:11.744Z,58.50
2016-11-20T04:36:11.983Z,58.30
2016-11-20T04:37:11.923Z,58.40
2016-11-20T04:38:12.829Z,58.50
2016-11-20T04:39:13.680Z,58.60
2016-11-20T04:40:11.899Z,58.40
2016-11-20T04:41:11.918Z,58.50
2016-11-20T04:42:12.731Z,58.60
2016-11-20T04:43:12.280Z,58.40
2016-11-20T04:44:12.807Z,58.50
2016-11-20T04:45:11.909Z,58.50
2016-11-20T04:46:11.932Z,58.40
2016-11-20T04:47:12.868Z,58.50
2016-11-20T04:48:10.354Z,is
2016-11-20T04:49:11.524Z,58.40
2016-11-20T04:50:11.601Z,58.50
2016-11-20T04:51:10.466Z,is
2016-11-20T04:52:11.784Z,58.50
2016-11-20T04:53:10.293Z,is
2016-11-20T04:54:12.706Z,58.60
2016-11-20T04:55:11.895Z,58.50
2016-11-20T04:56:13.762Z,58.60
2016-11-20T04:57:11.661Z,58.40
2016-11-20T04:58:12.228Z,58.50
2016-11-20T04:59:18.045Z,58.50
2016-11-20T05:00:12.710Z,58.40
2016-11-20T05:01:11.803Z,58.50
2016-11-20T05:02:13.577Z,58.40
2016-11-20T05:03:12.530Z,58.60
2016-11-20T05:04:12.094Z,58.40
2016-11-20T05:05:12.147Z,58.50
2016-11-20T05:06:12.673Z,58.60
2016-11-20T05:07:11.466Z,is
2016-11-20T05:08:11.507Z,58.50
2016-11-20T05:09:12.153Z,58.70
2016-11-20T05:10:12.072Z,58.50
2016-11-20T05:11:12.080Z,58.60
2016-11-20T05:12:12.199Z,58.50
2016-11-20T05:13:12.830Z,58.70
2016-11-20T05:14:14.103Z,58.60
2016-11-20T05:15:12.576Z,58.60
2016-11-20T05:16:12.103Z,58.70
2016-11-20T05:17:15.866Z,58.70
2016-11-20T05:18:12.501Z,58.60
2016-11-20T05:19:12.151Z,58.70
2016-11-20T05:20:12.644Z,58.60
2016-11-20T05:21:13.217Z,58.70
2016-11-20T05:22:12.608Z,58.60
2016-11-20T05:23:14.370Z,58.60
2016-11-20T05:24:11.553Z,58.50
2016-11-20T05:25:16.209Z,58.70
2016-11-20T05:26:13.127Z,58.60
2016-11-20T05:27:12.107Z,58.60
2016-11-20T05:28:11.911Z,58.60
2016-11-20T05:29:14.202Z,58.70
2016-11-20T05:30:12.041Z,58.60
2016-11-20T05:31:12.662Z,58.70
2016-11-20T05:32:13.260Z,58.70
2016-11-20T05:33:12.757Z,58.50
2016-11-20T05:34:12.270Z,58.70
2016-11-20T05:35:13.353Z,58.70
2016-11-20T05:36:13.124Z,58.70
2016-11-20T05:37:12.666Z,58.80
2016-11-20T05:38:12.287Z,58.70
2016-11-20T05:39:13.210Z,58.50
2016-11-20T05:40:13.769Z,58.70
2016-11-20T05:41:09.054Z,is
2016-11-20T05:42:12.674Z,58.70
2016-11-20T05:43:12.782Z,58.70
2016-11-20T05:44:12.184Z,58.60
2016-11-20T05:45:13.801Z,58.90
2016-11-20T05:46:12.799Z,58.90
2016-11-20T05:47:12.746Z,59.00
2016-11-20T05:48:12.352Z,59.10
2016-11-20T05:49:12.962Z,59.00
2016-11-20T05:50:11.855Z,58.90
2016-11-20T05:51:12.536Z,58.90
2016-11-20T05:52:12.324Z,58.90
2016-11-20T05:53:12.184Z,58.80
2016-11-20T05:54:13.032Z,58.90
2016-11-20T05:55:10.060Z,is
2016-11-20T05:56:11.418Z,58.80
2016-11-20T05:57:10.298Z,is
2016-11-20T05:58:10.456Z,is
2016-11-20T05:59:13.007Z,58.90
2016-11-20T06:00:12.702Z,58.90
2016-11-20T06:01:12.496Z,58.80
2016-11-20T06:02:11.520Z,58.70
2016-11-20T06:03:10.283Z,is
2016-11-20T06:04:12.410Z,58.90
2016-11-20T06:05:11.462Z,58.80
2016-11-20T06:06:12.197Z,58.80
2016-11-20T06:07:12.709Z,58.80
2016-11-20T06:08:12.955Z,58.70
2016-11-20T06:09:12.637Z,58.80
2016-11-20T06:10:12.365Z,58.70
2016-11-20T06:11:12.001Z,58.70
2016-11-20T06:12:11.904Z,58.60
2016-11-20T06:13:12.001Z,58.70
2016-11-20T06:14:11.774Z,58.90
2016-11-20T06:15:10.502Z,is
2016-11-20T06:16:12.328Z,58.80
2016-11-20T06:17:14.228Z,58.80
2016-11-20T06:18:09.586Z,is
2016-11-20T06:19:12.437Z,58.80
2016-11-20T06:20:11.492Z,58.80
2016-11-20T06:21:11.587Z,58.70
2016-11-20T06:22:11.618Z,58.70
2016-11-20T06:23:12.261Z,58.80
2016-11-20T06:24:12.161Z,58.60
2016-11-20T06:25:12.122Z,58.70
2016-11-20T06:26:12.463Z,58.70
2016-11-20T06:27:11.591Z,58.90
2016-11-20T06:28:11.685Z,58.80
2016-11-20T06:29:11.756Z,58.70
2016-11-20T06:30:12.320Z,58.80
2016-11-20T06:31:12.684Z,58.80
2016-11-20T06:32:11.695Z,58.90
2016-11-20T06:33:13.487Z,59.20
2016-11-20T06:34:11.439Z,59.20
2016-11-20T06:35:10.205Z,is
2016-11-20T06:36:12.153Z,59.50
2016-11-20T06:37:12.227Z,59.40
2016-11-20T06:38:12.786Z,59.70
2016-11-20T06:39:12.571Z,59.70
2016-11-20T06:40:11.537Z,59.80
2016-11-20T06:41:11.707Z,59.60
2016-11-20T06:42:11.754Z,59.90
2016-11-20T06:43:12.491Z,59.90
2016-11-20T06:44:12.378Z,59.90
2016-11-20T06:45:11.776Z,59.80
2016-11-20T06:46:11.780Z,59.60
2016-11-20T06:47:11.772Z,59.90
2016-11-20T06:48:12.502Z,60.10
2016-11-20T06:49:12.342Z,60.20
2016-11-20T06:50:12.281Z,60.00
2016-11-20T06:51:17.859Z,60.40
2016-11-20T06:52:12.422Z,60.60
2016-11-20T06:53:12.119Z,60.70
2016-11-20T06:54:12.271Z,60.60
2016-11-20T06:55:12.952Z,60.60
2016-11-20T06:56:11.866Z,60.60
2016-11-20T06:57:13.516Z,60.70
2016-11-20T06:58:11.591Z,60.60
2016-11-20T06:59:12.571Z,60.70
2016-11-20T07:00:12.514Z,60.70
2016-11-20T07:01:12.080Z,60.60
2016-11-20T07:02:13.703Z,60.60
2016-11-20T07:03:12.243Z,60.60
2016-11-20T07:04:12.394Z,60.50
2016-11-20T07:05:13.306Z,60.40
2016-11-20T07:06:13.130Z,60.50
2016-11-20T07:07:12.905Z,60.70
2016-11-20T07:08:10.448Z,is
2016-11-20T07:09:12.451Z,60.60
2016-11-20T07:10:12.151Z,60.80
2016-11-20T07:11:12.896Z,60.60
2016-11-20T07:12:14.455Z,60.60
2016-11-20T07:13:12.021Z,60.70
2016-11-20T07:14:12.029Z,60.60
2016-11-20T07:15:12.543Z,60.50
2016-11-20T07:16:11.361Z,60.30
2016-11-20T07:17:11.874Z,60.30
2016-11-20T07:18:11.692Z,60.10
2016-11-20T07:19:11.831Z,60.20
2016-11-20T07:20:11.821Z,60.20
2016-11-20T07:21:12.495Z,60.30
2016-11-20T07:22:11.542Z,60.20
2016-11-20T07:23:12.732Z,60.30
2016-11-20T07:24:12.634Z,60.30
2016-11-20T07:25:13.131Z,60.40
2016-11-20T07:26:12.108Z,60.20
2016-11-20T07:27:14.106Z,60.60
2016-11-20T07:28:12.047Z,60.50
2016-11-20T07:29:12.564Z,60.40
2016-11-20T07:30:12.508Z,60.60
2016-11-20T07:31:12.439Z,60.40
2016-11-20T07:32:11.445Z,60.40
2016-11-20T07:33:13.125Z,60.40
2016-11-20T07:34:13.522Z,60.60
2016-11-20T07:35:12.078Z,60.30
2016-11-20T07:36:13.626Z,60.40
2016-11-20T07:37:11.853Z,60.40
2016-11-20T07:38:12.745Z,60.30
2016-11-20T07:39:12.371Z,60.30
2016-11-20T07:40:12.235Z,60.20
2016-11-20T07:41:12.223Z,60.30
2016-11-20T07:42:12.215Z,60.40
2016-11-20T07:43:12.705Z,60.60
2016-11-20T07:44:11.719Z,60.80
2016-11-20T07:45:14.433Z,59.90
2016-11-20T07:46:10.146Z,is
2016-11-20T07:47:09.419Z,is
2016-11-20T07:48:11.773Z,60.70
2016-11-20T07:49:12.623Z,60.70
2016-11-20T07:50:11.763Z,59.90
2016-11-20T07:51:09.809Z,is
2016-11-20T07:52:12.105Z,59.90
2016-11-20T07:53:12.808Z,60.40
2016-11-20T07:54:11.792Z,60.40
2016-11-20T07:55:11.812Z,60.60
2016-11-20T07:56:11.932Z,60.60
2016-11-20T07:57:12.643Z,59.00
2016-11-20T07:58:12.209Z,56.20
2016-11-20T07:59:12.912Z,57.80
2016-11-20T08:00:11.755Z,59.40
2016-11-20T08:01:12.402Z,59.80
2016-11-20T08:02:11.360Z,60.10
2016-11-20T08:03:12.350Z,60.20
2016-11-20T08:04:13.220Z,60.30
2016-11-20T08:05:12.305Z,60.20
2016-11-20T08:06:12.692Z,60.30
2016-11-20T08:07:12.293Z,60.40
2016-11-20T08:08:12.299Z,60.40
2016-11-20T08:09:12.110Z,60.30
2016-11-20T08:10:12.185Z,60.20
2016-11-20T08:11:14.210Z,60.40
2016-11-20T08:12:12.190Z,60.30
2016-11-20T08:13:12.900Z,60.40
2016-11-20T08:14:13.567Z,60.20
2016-11-20T08:15:13.497Z,60.30
2016-11-20T08:16:12.455Z,60.40
2016-11-20T08:17:11.647Z,60.20
2016-11-20T08:18:12.384Z,60.30
2016-11-20T08:19:12.021Z,60.30
2016-11-20T08:20:12.826Z,60.40
2016-11-20T08:21:12.639Z,60.30
2016-11-20T08:22:12.022Z,60.30
2016-11-20T08:23:11.903Z,60.40
2016-11-20T08:24:12.020Z,60.30
2016-11-20T08:25:12.431Z,60.30
2016-11-20T08:26:11.896Z,60.30
2016-11-20T08:27:12.124Z,60.40
2016-11-20T08:28:12.689Z,60.40
2016-11-20T08:29:10.224Z,is
2016-11-20T08:30:10.031Z,is
2016-11-20T08:31:11.461Z,60.30
2016-11-20T08:32:11.821Z,60.30
2016-11-20T08:33:12.953Z,60.30
2016-11-20T08:34:12.636Z,60.30
2016-11-20T08:35:12.832Z,60.30
2016-11-20T08:36:11.919Z,60.30
2016-11-20T08:37:13.008Z,60.30
2016-11-20T08:38:12.278Z,60.20
2016-11-20T08:39:11.314Z,is
2016-11-20T08:40:12.048Z,60.20
2016-11-20T08:41:12.164Z,60.30
2016-11-20T08:42:12.786Z,60.20
2016-11-20T08:43:12.240Z,60.30
2016-11-20T08:44:11.326Z,60.20
2016-11-20T08:45:12.228Z,60.20
2016-11-20T08:46:12.196Z,60.20
2016-11-20T08:47:12.288Z,60.20
2016-11-20T08:48:12.663Z,60.40
2016-11-20T08:49:12.209Z,60.20
2016-11-20T08:50:10.151Z,is
2016-11-20T08:51:12.332Z,60.20
2016-11-20T08:52:12.075Z,60.20
2016-11-20T08:53:12.815Z,60.20
2016-11-20T08:54:09.749Z,is
2016-11-20T08:55:12.057Z,60.20
2016-11-20T08:56:12.098Z,60.10
2016-11-20T08:57:12.208Z,60.10
2016-11-20T08:58:11.255Z,is
2016-11-20T08:59:12.445Z,60.10
2016-11-20T09:00:11.475Z,60.00
2016-11-20T09:01:12.106Z,60.00
2016-11-20T09:02:12.720Z,60.00
2016-11-20T09:03:12.557Z,60.00
2016-11-20T09:04:12.108Z,59.90
2016-11-20T09:05:13.360Z,60.10
2016-11-20T09:06:11.789Z,59.90
2016-11-20T09:07:11.847Z,59.90
2016-11-20T09:08:13.240Z,60.00
2016-11-20T09:09:10.651Z,is
2016-11-20T09:10:12.391Z,60.00
2016-11-20T09:11:12.484Z,60.00
2016-11-20T09:12:13.761Z,60.00
2016-11-20T09:13:12.275Z,59.90
2016-11-20T09:14:13.944Z,59.90
2016-11-20T09:15:17.466Z,59.90
2016-11-20T09:16:11.635Z,59.90
2016-11-20T09:17:09.715Z,is
2016-11-20T09:18:18.036Z,59.90
2016-11-20T09:19:12.507Z,59.80
2016-11-20T09:20:12.189Z,60.00
2016-11-20T09:21:12.926Z,60.00
2016-11-20T09:22:11.900Z,60.00
2016-11-20T09:23:11.985Z,60.00
2016-11-20T09:24:09.191Z,is
2016-11-20T09:25:10.912Z,is
2016-11-20T09:26:12.953Z,60.00
2016-11-20T09:27:10.457Z,is
2016-11-20T09:28:11.719Z,60.00
2016-11-20T09:29:12.406Z,60.00
2016-11-20T09:30:13.696Z,60.10
2016-11-20T09:31:11.885Z,60.00
2016-11-20T09:32:11.869Z,60.00
2016-11-20T09:33:12.532Z,60.10
2016-11-20T09:34:12.312Z,60.00
2016-11-20T09:35:12.368Z,59.90
2016-11-20T09:36:12.471Z,59.80
2016-11-20T09:37:13.038Z,59.90
2016-11-20T09:38:12.350Z,59.70
2016-11-20T09:39:10.991Z,is
2016-11-20T09:40:12.189Z,59.60
2016-11-20T09:41:12.263Z,59.70
2016-11-20T09:42:12.733Z,59.80
2016-11-20T09:43:13.676Z,60.00
2016-11-20T09:44:12.512Z,60.00
2016-11-20T09:45:10.133Z,is
2016-11-20T09:46:12.249Z,59.90
2016-11-20T09:47:12.126Z,59.90
2016-11-20T09:48:14.650Z,60.10
2016-11-20T09:49:11.645Z,59.90
2016-11-20T09:50:14.047Z,60.10
2016-11-20T09:51:12.120Z,59.90
2016-11-20T09:52:12.598Z,59.90
2016-11-20T09:53:12.328Z,60.00
2016-11-20T09:54:12.865Z,60.10
2016-11-20T09:55:12.153Z,60.00
2016-11-20T09:56:12.235Z,60.00
2016-11-20T09:57:10.477Z,is
2016-11-20T09:58:12.906Z,60.00
2016-11-20T09:59:11.844Z,59.90
2016-11-20T10:00:11.882Z,60.00
2016-11-20T10:01:12.637Z,60.00
2016-11-20T10:02:11.807Z,59.90
2016-11-20T10:03:11.912Z,60.00
2016-11-20T10:04:12.429Z,60.00
2016-11-20T10:05:13.015Z,60.00
2016-11-20T10:06:12.691Z,60.00
2016-11-20T10:07:12.668Z,59.90
2016-11-20T10:08:11.866Z,59.80
2016-11-20T10:09:11.749Z,59.80
2016-11-20T10:10:12.254Z,60.00
2016-11-20T10:11:12.839Z,59.90
2016-11-20T10:12:12.875Z,59.80
2016-11-20T10:13:12.273Z,59.80
2016-11-20T10:14:11.461Z,59.80
2016-11-20T10:15:12.074Z,59.90
2016-11-20T10:16:12.030Z,59.80
2016-11-20T10:17:13.734Z,59.80
2016-11-20T10:18:11.978Z,59.90
2016-11-20T10:19:12.103Z,59.90
2016-11-20T10:20:12.055Z,59.80
2016-11-20T10:21:11.878Z,60.00
2016-11-20T10:22:14.858Z,60.00
2016-11-20T10:23:12.144Z,60.00
2016-11-20T10:24:12.802Z,60.10
2016-11-20T10:25:11.907Z,60.00
2016-11-20T10:26:13.793Z,60.10
2016-11-20T10:27:12.332Z,60.10
2016-11-20T10:28:12.230Z,60.00
2016-11-20T10:29:12.167Z,60.00
2016-11-20T10:30:12.875Z,60.20
2016-11-20T10:31:11.782Z,60.10
2016-11-20T10:32:13.682Z,60.10
2016-11-20T10:33:11.558Z,60.10
2016-11-20T10:34:11.627Z,60.10
2016-11-20T10:35:13.237Z,60.20
2016-11-20T10:36:12.278Z,60.30
2016-11-20T10:37:17.375Z,60.20
2016-11-20T10:38:10.384Z,is
2016-11-20T10:39:14.914Z,60.10
2016-11-20T10:40:12.252Z,60.20
2016-11-20T10:41:12.618Z,60.30
2016-11-20T10:42:11.656Z,60.20
2016-11-20T10:43:14.433Z,60.20
2016-11-20T10:44:12.717Z,60.30
2016-11-20T10:45:11.995Z,60.30
2016-11-20T10:46:12.023Z,60.60
2016-11-20T10:47:13.834Z,60.20
2016-11-20T10:48:12.959Z,60.30
2016-11-20T10:49:13.445Z,60.40
2016-11-20T10:50:11.959Z,60.30
2016-11-20T10:51:13.672Z,60.40
2016-11-20T10:52:11.799Z,60.30
2016-11-20T10:53:13.813Z,60.30
2016-11-20T10:54:12.207Z,60.40
2016-11-20T10:55:12.770Z,60.30
2016-11-20T10:56:12.345Z,60.40
2016-11-20T10:57:12.740Z,60.30
2016-11-20T10:58:11.834Z,60.30
2016-11-20T10:59:11.841Z,60.20
2016-11-20T11:00:12.456Z,60.20
2016-11-20T11:01:11.610Z,60.20
2016-11-20T11:02:11.718Z,60.20
2016-11-20T11:03:11.721Z,60.20
2016-11-20T11:04:10.401Z,is
2016-11-20T11:05:11.697Z,60.10
2016-11-20T11:06:11.715Z,60.20
2016-11-20T11:07:12.185Z,60.10
2016-11-20T11:08:12.887Z,60.10
2016-11-20T11:09:13.612Z,60.10
2016-11-20T11:10:10.415Z,is
2016-11-20T11:11:10.353Z,is
2016-11-20T11:12:12.348Z,60.10
2016-11-20T11:13:12.294Z,59.90
2016-11-20T11:14:12.177Z,60.00
2016-11-20T11:15:12.224Z,60.10
2016-11-20T11:16:12.089Z,59.20
2016-11-20T11:17:12.701Z,60.10
2016-11-20T11:18:11.759Z,60.00
2016-11-20T11:19:12.135Z,60.00
2016-11-20T11:20:12.789Z,60.10
2016-11-20T11:21:13.339Z,60.70
2016-11-20T11:22:12.222Z,60.00
2016-11-20T11:23:12.284Z,60.10
2016-11-20T11:24:12.960Z,60.00
2016-11-20T11:25:13.628Z,60.00
2016-11-20T11:26:09.399Z,is
2016-11-20T11:27:12.471Z,60.00
2016-11-20T11:28:11.447Z,60.00
2016-11-20T11:29:11.832Z,60.00
2016-11-20T11:30:12.510Z,60.10
2016-11-20T11:31:11.740Z,60.00
2016-11-20T11:32:12.333Z,60.00
2016-11-20T11:33:12.780Z,60.00
2016-11-20T11:34:12.392Z,59.90
2016-11-20T11:35:12.373Z,59.90
2016-11-20T11:36:13.315Z,60.00
2016-11-20T11:37:11.531Z,59.90
2016-11-20T11:38:11.682Z,60.00
2016-11-20T11:39:11.859Z,60.00
2016-11-20T11:40:11.921Z,60.00
2016-11-20T11:41:11.943Z,60.00
2016-11-20T11:42:12.444Z,60.00
2016-11-20T11:43:12.227Z,60.00
2016-11-20T11:44:12.753Z,59.90
2016-11-20T11:45:12.003Z,60.10
2016-11-20T11:46:12.528Z,59.90
2016-11-20T11:47:13.007Z,60.10
2016-11-20T11:48:12.829Z,60.00
2016-11-20T11:49:11.829Z,59.90
2016-11-20T11:50:12.629Z,60.00
2016-11-20T11:51:11.873Z,59.90
2016-11-20T11:52:10.518Z,is
2016-11-20T11:53:10.555Z,is
2016-11-20T11:54:12.229Z,59.90
2016-11-20T11:55:12.800Z,60.10
2016-11-20T11:56:12.431Z,60.20
2016-11-20T11:57:11.806Z,59.90
2016-11-20T11:58:12.674Z,60.00
2016-11-20T11:59:11.816Z,59.90
2016-11-20T12:00:14.055Z,60.00
2016-11-20T12:01:12.685Z,60.10
2016-11-20T12:02:10.492Z,is
2016-11-20T12:03:11.829Z,60.20
2016-11-20T12:04:13.515Z,60.20
2016-11-20T12:05:13.378Z,60.20
2016-11-20T12:06:12.369Z,60.20
2016-11-20T12:07:12.952Z,60.30
2016-11-20T12:08:12.372Z,60.20
2016-11-20T12:09:11.457Z,60.20
2016-11-20T12:10:11.705Z,60.20
2016-11-20T12:11:12.520Z,60.30
2016-11-20T12:12:11.699Z,60.30
2016-11-20T12:13:12.348Z,60.30
2016-11-20T12:14:11.376Z,60.60
2016-11-20T12:15:11.890Z,60.30
2016-11-20T12:16:12.649Z,60.50
2016-11-20T12:17:11.867Z,60.40
2016-11-20T12:18:12.618Z,60.50
2016-11-20T12:19:12.335Z,60.40
2016-11-20T12:20:13.489Z,60.50
2016-11-20T12:21:11.617Z,60.50
2016-11-20T12:22:13.462Z,60.60
2016-11-20T12:23:12.141Z,60.50
2016-11-20T12:24:13.260Z,60.80
2016-11-20T12:25:10.832Z,is
2016-11-20T12:26:12.199Z,60.70
2016-11-20T12:27:12.878Z,60.80
2016-11-20T12:28:12.257Z,60.70
2016-11-20T12:29:12.682Z,60.80
2016-11-20T12:30:12.387Z,60.90
2016-11-20T12:31:12.200Z,61.00
2016-11-20T12:32:11.522Z,60.90
2016-11-20T12:33:11.601Z,61.00
2016-11-20T12:34:11.890Z,60.90
2016-11-20T12:35:12.595Z,61.20
2016-11-20T12:36:13.394Z,60.80
2016-11-20T12:37:13.635Z,61.20
2016-11-20T12:38:09.663Z,is
2016-11-20T12:39:11.879Z,61.10
2016-11-20T12:40:11.943Z,61.20
2016-11-20T12:41:11.802Z,61.20
2016-11-20T12:42:11.868Z,61.30
2016-11-20T12:43:11.913Z,61.20
2016-11-20T12:44:10.863Z,is
2016-11-20T12:45:12.767Z,61.50
2016-11-20T12:46:11.785Z,61.30
2016-11-20T12:47:12.310Z,61.30
2016-11-20T12:48:12.297Z,61.20
2016-11-20T12:49:13.028Z,61.40
2016-11-20T12:50:12.434Z,61.30
2016-11-20T12:51:13.159Z,61.20
2016-11-20T12:52:12.782Z,61.50
2016-11-20T12:53:13.076Z,61.30
2016-11-20T12:54:12.331Z,61.30
2016-11-20T12:55:12.408Z,61.40
2016-11-20T12:56:11.520Z,61.30
2016-11-20T12:57:13.187Z,61.50
2016-11-20T12:58:12.187Z,61.40